This is the latest recevied weather packets stored in our database for station/object JR4VEV-13. If no packets are shown the sender has not sent any weather packets the latest 10 day(s).
| Time | Temp. | Humidity | Pressure | Rain* | Wind** | Luminosity | Snow |
|---|---|---|---|---|---|---|---|
| 1777618378 | 15.56° C | 64% | 1003.1 hPa | 0 mm | - | - | - |
| 1777617777 | 15.56° C | 64% | 1003 hPa | 0 mm | - | - | - |
| 1777617177 | 15.56° C | 60% | 1002.9 hPa | 0 mm | - | - | - |
| 1777616578 | 16.67° C | 61% | 1002.6 hPa | 0 mm | - | - | - |
| 1777615978 | 17.22° C | 60% | 1002.3 hPa | 0 mm | - | - | - |
| 1777615377 | 17.22° C | 60% | 1002 hPa | 0 mm | - | - | - |
| 1777614779 | 16.67° C | 63% | 1001.9 hPa | 0.25 mm | - | - | - |
| 1777614178 | 16.67° C | 63% | 1002 hPa | 0.51 mm | - | - | - |
| 1777613578 | 16.67° C | 64% | 1002.1 hPa | 0.51 mm | - | - | - |
| 1777612978 | 16.67° C | 65% | 1002.1 hPa | 0.51 mm | - | - | - |
| 1777612378 | 16.67° C | 70% | 1002.1 hPa | 1.02 mm | - | - | - |
| 1777611778 | 16.11° C | 72% | 1002.3 hPa | 1.02 mm | - | - | - |
| 1777611178 | 15.56° C | 76% | 1002.3 hPa | 0.76 mm | - | - | - |
| 1777610578 | 17.22° C | 65% | 1001.9 hPa | 0.51 mm | - | - | - |
| 1777609978 | 17.22° C | 79% | 1001.7 hPa | 0.51 mm | - | - | - |
| 1777609378 | 16.11° C | 76% | 1001.8 hPa | 0.51 mm | - | - | - |
| 1777608778 | 17.22° C | 74% | 1001.9 hPa | 0 mm | - | - | - |
| 1777608178 | 18.89° C | 59% | 1001.5 hPa | 0 mm | - | - | - |
| 1777607578 | 18.89° C | 60% | 1001.6 hPa | 0 mm | - | - | - |
| 1777606979 | 18.33° C | 61% | 1001.7 hPa | 0 mm | - | - | - |
| 1777606379 | 18.89° C | 58% | 1001.7 hPa | 0 mm | - | - | - |
| 1777605778 | 19.44° C | 57% | 1001.9 hPa | 0 mm | - | - | - |
| 1777605177 | 19.44° C | 54% | 1002 hPa | 0 mm | - | - | - |
| 1777604577 | 19.44° C | 57% | 1002.2 hPa | 0 mm | - | - | - |
| 1777603979 | 20° C | 57% | 1002.2 hPa | 0 mm | - | - | - |
* Rain latest hour (hover to see other rain measurements)
** Current wind speed in m/s (hover to see current wind gust speed)